Flight Track Log - Related Links

Times and Time Zones

All times are in EDT time to prevent confusion due to time zone crossing. See the N69EC flight status page for this flight to view local times or setup timezone preferences in your user account.

Time Position Orientation Groundspeed Altitude Reporting Facility
EDT Latitude Longitude Course Direction KTS MPH feet Rate Location/Type
Thu 08:17:04 AM 41.8500 -88.3833 11° North 267 307 4,000  Level Chicago TRACON
Thu 08:18:04 AM 41.9167 -88.3667 357° North 287 330 4,000 61 Level Chicago TRACON
Thu 08:18:43 AM 41.9628 -88.3697 29° Northeast 279 321 4,100 727 Climbing Chicago Center
Thu 08:19:43 AM 42.0311 -88.3183 41° Northeast 292 336 5,200 950 Climbing Chicago Center
Thu 08:20:43 AM 42.0950 -88.2444 41° Northeast 298 343 6,000 1,050 Climbing Chicago Center
Thu 08:21:43 AM 42.1608 -88.1678 39° Northeast 303 349 7,300 1,950 Climbing Chicago Center
Thu 08:22:43 AM 42.2331 -88.0881 34° Northeast 313 360 9,900 2,750 Climbing Chicago Center
Thu 08:23:43 AM 42.3156 -88.0133 North 330 380 12,800 3,250 Climbing Chicago Center
Thu 08:24:43 AM 42.4281 -87.9942 North 374 430 16,400 3,050 Climbing Chicago Center
Thu 08:25:43 AM 42.5258 -87.9892 North 362 417 18,900 2,200 Climbing Chicago Center
Thu 08:26:43 AM 42.6281 -87.9869 22° Northeast 362 417 20,800 1,100 Climbing Chicago Center
Thu 08:27:43 AM 42.7336 -87.9281 55° Northeast 420 483 21,100 150 Climbing Chicago Center
Thu 08:28:43 AM 42.8067 -87.7850 70° East 466 536 21,100 -50 Level Chicago Center
Thu 08:29:43 AM 42.8522 -87.6167 66° East 471 542 21,000 -50 Descending Chicago Center
Thu 08:30:43 AM 42.9039 -87.4564 68° East 471 542 21,000  Level Chicago Center
Thu 08:31:43 AM 42.9472 -87.3078 69° East 471 542 21,000  Level Chicago Center
Thu 08:32:43 AM 42.9942 -87.1414 67° East 466 536 21,000 -250 Level Chicago Center
Thu 08:33:43 AM 43.0450 -86.9778 68° East 466 536 20,500 -800 Descending Chicago Center
Thu 08:34:43 AM 43.0936 -86.8139 68° East 466 536 19,400 -900 Descending Chicago Center
Thu 08:35:43 AM 43.1458 -86.6353 64° Northeast 461 531 18,700 -1,100 Descending Chicago Center
Thu 08:36:43 AM 43.2006 -86.4789 64° Northeast 456 525 17,200 -1,550 Descending Chicago Center
Thu 08:37:43 AM 43.2550 -86.3283 69° East 444 511 15,600 -1,600 Descending Chicago Center
Thu 08:38:43 AM 43.2989 -86.1719 72° East 439 505 14,000 -1,450 Descending Chicago Center
Thu 08:39:43 AM 43.3325 -86.0333 73° East 434 499 12,700 -1,350 Descending Chicago Center
Thu 08:40:43 AM 43.3675 -85.8800 65° Northeast 428 493 11,300 -1,400 Descending Chicago Center
Thu 08:41:43 AM 43.4133 -85.7458 65° Northeast 410 472 9,900 -1,150 Descending Chicago Center
Thu 08:42:43 AM 43.4536 -85.6292 76° East 368 423 9,000 -1,650 Descending Chicago Center
Thu 08:43:43 AM 43.4747 -85.5106 80° East 331 381 6,600 -2,200 Descending Chicago Center
Thu 08:44:43 AM 43.4911 -85.3778 71° East 320 368 4,600 -1,650 Descending Chicago Center
Thu 08:45:43 AM 43.5167 -85.2731 71° East 307 353 3,300 -1,300 Descending Chicago Center

Login

Don't have an account? Register now (free) for customized features, flight alerts, and more!